Wetterdaten: Woche 04.01.16 - 10.01.16 (KW1)
Datum Zeit Temp. A. Feuchte A. Luftdruck Regen Wind Richtung Taupunkt Windchill Windben
04.01.2016 00:00 1,0 C 95 % 995,0 hPa 1,3 l/m 2,1 km/h (1 Bft) O 0,3 C 1,0 C 4,8 km/h (1 Bft)
04.01.2016 01:00 0,8 C 95 % 994,0 hPa 0,5 l/m 2,7 km/h (1 Bft) O 0,1 C 0,8 C 5,1 km/h (1 Bft)
04.01.2016 02:00 0,4 C 96 % 993,4 hPa 0,0 l/m 1,3 km/h (1 Bft) O-NO -0,1 C 0,4 C 2,7 km/h (1 Bft)
04.01.2016 03:00 0,4 C 96 % 993,0 hPa 0,3 l/m 0,9 km/h (0 Bft) O -0,2 C 0,4 C 2,1 km/h (1 Bft)
04.01.2016 04:00 0,8 C 97 % 992,8 hPa 4,8 l/m 4,6 km/h (1 Bft) O-NO 0,3 C 0,6 C 8,4 km/h (2 Bft)
04.01.2016 05:00 2,2 C 97 % 992,5 hPa 4,8 l/m 4,1 km/h (1 Bft) O-NO 1,7 C 2,1 C 7,5 km/h (2 Bft)
04.01.2016 06:00 3,3 C 96 % 992,4 hPa 2,8 l/m 5,2 km/h (1 Bft) O-NO 2,7 C 2,9 C 10,0 km/h (2 Bft)
04.01.2016 07:00 3,6 C 95 % 992,7 hPa 2,0 l/m 5,7 km/h (2 Bft) O-NO 2,8 C 3,0 C 11,2 km/h (2 Bft)
04.01.2016 08:00 3,4 C 94 % 993,3 hPa 1,0 l/m 6,5 km/h (2 Bft) O-NO 2,5 C 2,4 C 12,6 km/h (3 Bft)
04.01.2016 09:00 3,4 C 94 % 993,7 hPa 0,3 l/m 7,2 km/h (2 Bft) O-NO 2,5 C 2,3 C 16,0 km/h (3 Bft)
04.01.2016 10:00 4,1 C 92 % 993,9 hPa 0,0 l/m 7,4 km/h (2 Bft) O-NO 2,9 C 2,8 C 18,1 km/h (3 Bft)
04.01.2016 11:00 4,5 C 91 % 994,2 hPa 0,0 l/m 5,8 km/h (2 Bft) O-NO 3,1 C 4,2 C 14,4 km/h (3 Bft)
04.01.2016 12:00 4,2 C 91 % 994,2 hPa 0,0 l/m 5,2 km/h (1 Bft) O-NO 2,9 C 4,1 C 11,1 km/h (2 Bft)
04.01.2016 13:00 4,2 C 91 % 994,4 hPa 0,0 l/m 4,8 km/h (1 Bft) O 2,9 C 4,2 C 11,8 km/h (2 Bft)
04.01.2016 14:00 4,3 C 90 % 994,3 hPa 0,0 l/m 5,7 km/h (2 Bft) NO 2,8 C 4,0 C 12,2 km/h (2 Bft)
04.01.2016 15:00 4,1 C 90 % 994,4 hPa 0,0 l/m 5,8 km/h (2 Bft) O-NO 2,7 C 4,1 C 11,6 km/h (2 Bft)
04.01.2016 16:00 4,1 C 90 % 994,6 hPa 0,0 l/m 5,2 km/h (1 Bft) NO 2,6 C 3,9 C 13,3 km/h (3 Bft)
04.01.2016 17:00 3,8 C 91 % 995,0 hPa 0,5 l/m 3,9 km/h (1 Bft) O-NO 2,5 C 3,7 C 9,3 km/h (2 Bft)
04.01.2016 18:00 3,4 C 93 % 995,2 hPa 0,3 l/m 2,2 km/h (1 Bft) O 2,5 C 3,4 C 5,0 km/h (1 Bft)
04.01.2016 19:00 3,0 C 94 % 995,5 hPa 0,0 l/m 1,0 km/h (0 Bft) NO 2,2 C 3,0 C 3,5 km/h (1 Bft)
04.01.2016 20:00 2,7 C 93 % 995,7 hPa 0,0 l/m 1,9 km/h (1 Bft) NO 1,7 C 2,7 C 5,8 km/h (2 Bft)
04.01.2016 21:00 2,0 C 93 % 995,7 hPa 0,0 l/m 1,6 km/h (1 Bft) NO 1,1 C 2,0 C 4,9 km/h (1 Bft)
04.01.2016 22:00 2,3 C 93 % 995,7 hPa 0,0 l/m 1,3 km/h (1 Bft) O-NO 1,3 C 2,3 C 3,7 km/h (1 Bft)
04.01.2016 23:00 1,4 C 95 % 995,8 hPa 0,0 l/m 0,3 km/h (0 Bft) O-NO 0,7 C 1,4 C 1,5 km/h (1 Bft)
05.01.2016 00:00 1,4 C 95 % 995,6 hPa 0,0 l/m 0,3 km/h (0 Bft) O-NO 0,7 C 1,4 C 1,4 km/h (1 Bft)
05.01.2016 01:00 1,0 C 96 % 995,1 hPa 0,0 l/m 1,7 km/h (1 Bft) O-NO 0,4 C 1,0 C 4,9 km/h (1 Bft)
05.01.2016 02:00 1,6 C 96 % 994,9 hPa 1,0 l/m 0,7 km/h (0 Bft) O-SO 1,0 C 1,6 C 2,1 km/h (1 Bft)
05.01.2016 03:00 1,8 C 95 % 994,9 hPa 1,8 l/m 2,4 km/h (1 Bft) O 1,1 C 1,8 C 5,1 km/h (1 Bft)
05.01.2016 04:00 1,6 C 95 % 994,8 hPa 1,3 l/m 1,4 km/h (1 Bft) O 0,9 C 1,6 C 3,2 km/h (1 Bft)
05.01.2016 05:00 1,0 C 96 % 994,9 hPa 3,0 l/m 1,4 km/h (1 Bft) O 0,4 C 1,0 C 2,7 km/h (1 Bft)
05.01.2016 06:00 0,4 C 96 % 995,2 hPa 0,3 l/m 0,1 km/h (0 Bft) N -0,1 C 0,4 C 0,6 km/h (0 Bft)
05.01.2016 07:00 -0,1 C 97 % 995,6 hPa 0,0 l/m 0,0 km/h (0 Bft) N -0,6 C -0,1 C 0,2 km/h (0 Bft)
05.01.2016 08:00 -0,0 C 97 % 996,1 hPa 0,0 l/m 0,1 km/h (0 Bft) S-SW -0,4 C -0,0 C 0,9 km/h (0 Bft)
05.01.2016 09:00 1,1 C 98 % 996,5 hPa 0,5 l/m 2,7 km/h (1 Bft) O-NO 0,7 C 1,1 C 6,7 km/h (2 Bft)
05.01.2016 10:00 3,5 C 94 % 996,8 hPa 0,5 l/m 4,0 km/h (1 Bft) NO 2,6 C 3,5 C 10,1 km/h (2 Bft)
05.01.2016 11:00 3,6 C 94 % 996,9 hPa 0,0 l/m 6,8 km/h (2 Bft) NO 2,7 C 3,0 C 14,8 km/h (3 Bft)
05.01.2016 12:00 3,8 C 93 % 996,7 hPa 0,0 l/m 6,1 km/h (2 Bft) O-NO 2,8 C 3,5 C 13,6 km/h (3 Bft)
05.01.2016 13:00 4,7 C 90 % 996,8 hPa 0,0 l/m 6,0 km/h (2 Bft) O-NO 3,2 C 4,4 C 15,0 km/h (3 Bft)
05.01.2016 14:00 4,1 C 91 % 996,6 hPa 0,3 l/m 5,1 km/h (1 Bft) O-NO 2,7 C 4,0 C 12,6 km/h (2 Bft)
05.01.2016 15:00 3,7 C 93 % 996,9 hPa 0,3 l/m 5,5 km/h (2 Bft) O 2,7 C 3,6 C 11,3 km/h (2 Bft)
05.01.2016 16:00 3,9 C 92 % 997,2 hPa 0,5 l/m 5,2 km/h (1 Bft) NO 2,6 C 3,9 C 13,4 km/h (3 Bft)
05.01.2016 17:00 3,9 C 91 % 997,6 hPa 0,3 l/m 5,4 km/h (1 Bft) O-NO 2,6 C 3,8 C 13,1 km/h (3 Bft)
05.01.2016 18:00 3,8 C 92 % 997,9 hPa 0,3 l/m 5,1 km/h (1 Bft) O 2,6 C 3,8 C 11,1 km/h (2 Bft)
05.01.2016 19:00 3,7 C 92 % 998,2 hPa 0,3 l/m 4,1 km/h (1 Bft) O-NO 2,5 C 3,7 C 10,9 km/h (2 Bft)
05.01.2016 20:00 3,1 C 92 % 998,4 hPa 0,0 l/m 3,0 km/h (1 Bft) O-NO 2,0 C 3,1 C 7,3 km/h (2 Bft)
05.01.2016 21:00 3,1 C 93 % 998,8 hPa 0,3 l/m 4,9 km/h (1 Bft) O 2,1 C 3,1 C 11,4 km/h (2 Bft)
05.01.2016 22:00 3,0 C 94 % 999,1 hPa 0,3 l/m 4,2 km/h (1 Bft) O-NO 2,0 C 2,9 C 10,1 km/h (2 Bft)
05.01.2016 23:00 2,3 C 95 % 999,3 hPa 0,0 l/m 1,1 km/h (0 Bft) O-NO 1,6 C 2,3 C 3,4 km/h (1 Bft)
06.01.2016 00:00 2,4 C 95 % 999,2 hPa 0,0 l/m 2,6 km/h (1 Bft) NO 1,7 C 2,4 C 6,0 km/h (2 Bft)
06.01.2016 01:00 1,5 C 94 % 999,3 hPa 0,0 l/m 1,0 km/h (0 Bft) NO 0,7 C 1,5 C 2,7 km/h (1 Bft)
06.01.2016 02:00 0,8 C 96 % 999,5 hPa 0,0 l/m 1,4 km/h (1 Bft) NO 0,2 C 0,8 C 3,8 km/h (1 Bft)
06.01.2016 03:00 0,9 C 96 % 999,6 hPa 0,0 l/m 2,7 km/h (1 Bft) O 0,2 C 0,9 C 5,7 km/h (2 Bft)
06.01.2016 04:00 0,5 C 96 % 999,3 hPa 0,0 l/m 1,1 km/h (0 Bft) NO -0,1 C 0,5 C 3,5 km/h (1 Bft)
06.01.2016 05:00 0,7 C 97 % 999,4 hPa 0,0 l/m 1,1 km/h (0 Bft) W-NW 0,2 C 0,7 C 2,6 km/h (1 Bft)
06.01.2016 06:00 0,7 C 96 % 999,6 hPa 0,0 l/m 0,7 km/h (0 Bft) N-NW 0,2 C 0,7 C 2,8 km/h (1 Bft)
06.01.2016 07:00 1,0 C 95 % 999,8 hPa 0,3 l/m 1,8 km/h (1 Bft) O-NO 0,4 C 1,0 C 5,5 km/h (2 Bft)
06.01.2016 08:00 0,9 C 96 % 1000,1 hPa 0,3 l/m 4,1 km/h (1 Bft) NO 0,4 C 0,9 C 10,4 km/h (2 Bft)
06.01.2016 09:00 1,0 C 95 % 1000,2 hPa 1,3 l/m 3,5 km/h (1 Bft) O-NO 0,4 C 1,0 C 7,7 km/h (2 Bft)
06.01.2016 10:00 0,8 C 96 % 1000,6 hPa 1,3 l/m 0,1 km/h (0 Bft) O 0,3 C 0,8 C 0,5 km/h (0 Bft)
06.01.2016 11:00 0,6 C 97 % 1000,7 hPa 1,3 l/m 1,0 km/h (0 Bft) O 0,1 C 0,6 C 2,5 km/h (1 Bft)
06.01.2016 12:00 1,1 C 97 % 1000,5 hPa 0,5 l/m 1,9 km/h (1 Bft) O 0,7 C 1,1 C 4,4 km/h (1 Bft)
06.01.2016 13:00 2,0 C 96 % 1000,5 hPa 0,0 l/m 3,5 km/h (1 Bft) O 1,4 C 2,0 C 8,6 km/h (2 Bft)
06.01.2016 14:00 2,2 C 95 % 1000,9 hPa 0,3 l/m 3,5 km/h (1 Bft) O-NO 1,5 C 2,2 C 8,4 km/h (2 Bft)
06.01.2016 15:00 2,1 C 95 % 1001,2 hPa 0,3 l/m 3,0 km/h (1 Bft) O 1,4 C 2,1 C 6,2 km/h (2 Bft)
06.01.2016 16:00 1,7 C 96 % 1001,8 hPa 0,0 l/m 0,8 km/h (0 Bft) O 1,1 C 1,7 C 3,1 km/h (1 Bft)
06.01.2016 17:00 1,1 C 96 % 1002,0 hPa 0,0 l/m 0,1 km/h (0 Bft) O 0,6 C 1,1 C 0,9 km/h (0 Bft)
06.01.2016 18:00 0,8 C 97 % 1002,1 hPa 0,0 l/m 0,2 km/h (0 Bft) O 0,4 C 0,8 C 1,2 km/h (1 Bft)
06.01.2016 19:00 0,9 C 98 % 1002,6 hPa 0,3 l/m 0,1 km/h (0 Bft) O 0,6 C 0,9 C 0,9 km/h (0 Bft)
06.01.2016 20:00 1,1 C 98 % 1002,8 hPa 0,3 l/m 0,4 km/h (0 Bft) O 0,9 C 1,1 C 1,5 km/h (1 Bft)
06.01.2016 21:00 1,4 C 98 % 1002,7 hPa 0,5 l/m 0,1 km/h (0 Bft) O-NO 1,1 C 1,4 C 1,2 km/h (1 Bft)
06.01.2016 22:00 1,4 C 98 % 1002,5 hPa 0,0 l/m 0,3 km/h (0 Bft) O-NO 1,2 C 1,4 C 2,0 km/h (1 Bft)
06.01.2016 23:00 1,6 C 98 % 1002,9 hPa 0,0 l/m 0,7 km/h (0 Bft) O-NO 1,3 C 1,6 C 1,9 km/h (1 Bft)
07.01.2016 00:00 1,7 C 98 % 1003,2 hPa 0,5 l/m 1,4 km/h (1 Bft) NO 1,4 C 1,7 C 3,3 km/h (1 Bft)
07.01.2016 01:00 1,6 C 97 % 1003,0 hPa 0,0 l/m 0,8 km/h (0 Bft) N-NO 1,2 C 1,6 C 3,1 km/h (1 Bft)
07.01.2016 02:00 1,6 C 97 % 1003,2 hPa 0,0 l/m 1,3 km/h (1 Bft) NO 1,2 C 1,6 C 3,1 km/h (1 Bft)
07.01.2016 03:00 1,6 C 96 % 1003,2 hPa 0,0 l/m 1,2 km/h (1 Bft) NO 1,1 C 1,6 C 2,8 km/h (1 Bft)
07.01.2016 04:00 1,6 C 97 % 1002,8 hPa 0,0 l/m 1,0 km/h (0 Bft) O-NO 1,1 C 1,6 C 3,2 km/h (1 Bft)
07.01.2016 05:00 0,9 C 96 % 1001,9 hPa 0,0 l/m 0,8 km/h (0 Bft) O-NO 0,4 C 0,9 C 2,4 km/h (1 Bft)
07.01.2016 06:00 0,7 C 97 % 1001,8 hPa 0,0 l/m 1,9 km/h (1 Bft) O-SO 0,2 C 0,7 C 4,8 km/h (1 Bft)
07.01.2016 07:00 0,8 C 96 % 1001,3 hPa 0,0 l/m 2,5 km/h (1 Bft) O-NO 0,2 C 0,8 C 7,4 km/h (2 Bft)
07.01.2016 08:00 1,3 C 96 % 1000,5 hPa 0,0 l/m 2,9 km/h (1 Bft) N-NO 0,7 C 1,3 C 8,1 km/h (2 Bft)
07.01.2016 09:00 1,6 C 95 % 1000,2 hPa 0,0 l/m 0,9 km/h (0 Bft) O-SO 0,9 C 1,6 C 3,0 km/h (1 Bft)
07.01.2016 10:00 3,3 C 92 % 999,0 hPa 0,0 l/m 2,5 km/h (1 Bft) NO 2,0 C 3,3 C 9,0 km/h (2 Bft)
07.01.2016 11:00 2,7 C 92 % 997,3 hPa 0,0 l/m 3,7 km/h (1 Bft) O 1,5 C 2,7 C 11,1 km/h (2 Bft)
07.01.2016 12:00 2,6 C 92 % 996,4 hPa 0,0 l/m 2,5 km/h (1 Bft) O 1,5 C 2,6 C 6,9 km/h (2 Bft)
07.01.2016 13:00 2,2 C 93 % 995,5 hPa 2,3 l/m 4,0 km/h (1 Bft) NO 1,2 C 2,2 C 12,0 km/h (2 Bft)
07.01.2016 14:00 0,8 C 95 % 995,2 hPa 0,8 l/m 3,2 km/h (1 Bft) O-NO 0,1 C 0,8 C 8,4 km/h (2 Bft)
07.01.2016 15:00 0,9 C 96 % 995,4 hPa 2,5 l/m 3,3 km/h (1 Bft) O-NO 0,3 C 0,9 C 7,2 km/h (2 Bft)
07.01.2016 16:00 1,9 C 97 % 996,2 hPa 2,0 l/m 3,9 km/h (1 Bft) O-NO 1,5 C 1,5 C 9,8 km/h (2 Bft)
07.01.2016 17:00 5,1 C 94 % 997,1 hPa 1,5 l/m 8,6 km/h (2 Bft) O-NO 4,3 C 3,3 C 20,5 km/h (4 Bft)
07.01.2016 18:00 5,3 C 93 % 998,1 hPa 0,0 l/m 5,2 km/h (1 Bft) O-NO 4,2 C 5,0 C 13,4 km/h (3 Bft)
07.01.2016 19:00 5,5 C 88 % 1000,2 hPa 0,0 l/m 6,5 km/h (2 Bft) O-NO 3,7 C 4,7 C 17,8 km/h (3 Bft)
07.01.2016 20:00 4,6 C 86 % 1001,6 hPa 0,0 l/m 5,9 km/h (2 Bft) O 2,5 C 4,3 C 15,5 km/h (3 Bft)
07.01.2016 21:00 3,9 C 89 % 1002,5 hPa 0,5 l/m 6,6 km/h (2 Bft) O-NO 2,2 C 2,9 C 14,6 km/h (3 Bft)
07.01.2016 22:00 3,7 C 86 % 1003,4 hPa 0,0 l/m 4,6 km/h (1 Bft) O-NO 1,7 C 3,7 C 16,5 km/h (3 Bft)
07.01.2016 23:00 3,2 C 88 % 1004,2 hPa 0,0 l/m 3,0 km/h (1 Bft) NO 1,4 C 3,2 C 7,7 km/h (2 Bft)
08.01.2016 00:00 2,9 C 91 % 1004,7 hPa 1,5 l/m 3,4 km/h (1 Bft) NO 1,6 C 2,7 C 9,3 km/h (2 Bft)
08.01.2016 01:00 2,9 C 94 % 1005,5 hPa 0,0 l/m 2,3 km/h (1 Bft) N-NO 2,0 C 2,9 C 6,4 km/h (2 Bft)
08.01.2016 02:00 3,1 C 93 % 1006,2 hPa 0,0 l/m 2,4 km/h (1 Bft) NO 2,1 C 3,1 C 5,7 km/h (2 Bft)
08.01.2016 03:00 2,9 C 93 % 1006,3 hPa 0,0 l/m 0,6 km/h (0 Bft) O-NO 2,0 C 2,9 C 2,4 km/h (1 Bft)
08.01.2016 04:00 3,1 C 93 % 1006,9 hPa 0,0 l/m 3,0 km/h (1 Bft) O 2,0 C 3,1 C 7,9 km/h (2 Bft)
08.01.2016 05:00 3,1 C 93 % 1007,7 hPa 0,0 l/m 2,1 km/h (1 Bft) O 2,1 C 3,1 C 4,8 km/h (1 Bft)
08.01.2016 06:00 3,1 C 94 % 1007,9 hPa 0,0 l/m 1,9 km/h (1 Bft) O-NO 2,2 C 3,1 C 4,4 km/h (1 Bft)
08.01.2016 07:00 3,1 C 94 % 1008,0 hPa 0,0 l/m 2,5 km/h (1 Bft) O 2,2 C 3,1 C 6,0 km/h (2 Bft)
08.01.2016 08:00 2,7 C 94 % 1008,2 hPa 0,0 l/m 1,7 km/h (1 Bft) O 1,8 C 2,7 C 4,2 km/h (1 Bft)
08.01.2016 09:00 2,6 C 94 % 1008,1 hPa 0,0 l/m 1,7 km/h (1 Bft) O 1,7 C 2,6 C 3,9 km/h (1 Bft)
08.01.2016 10:00 2,5 C 95 % 1008,0 hPa 0,0 l/m 0,4 km/h (0 Bft) SO 1,8 C 2,5 C 2,0 km/h (1 Bft)
08.01.2016 11:00 3,7 C 94 % 1007,8 hPa 0,0 l/m 1,7 km/h (1 Bft) W-NW 2,8 C 3,7 C 3,8 km/h (1 Bft)
08.01.2016 12:00 4,0 C 91 % 1007,4 hPa 0,0 l/m 2,4 km/h (1 Bft) W-NW 2,7 C 4,0 C 4,7 km/h (1 Bft)
08.01.2016 13:00 4,2 C 90 % 1006,4 hPa 0,0 l/m 1,0 km/h (0 Bft) W-NW 2,7 C 4,2 C 3,2 km/h (1 Bft)
08.01.2016 14:00 4,0 C 92 % 1005,6 hPa 0,0 l/m 0,7 km/h (0 Bft) W-NW 2,8 C 4,0 C 2,5 km/h (1 Bft)
08.01.2016 15:00 4,0 C 91 % 1005,7 hPa 0,0 l/m 0,9 km/h (0 Bft) W-NW 2,7 C 4,0 C 3,1 km/h (1 Bft)
08.01.2016 16:00 3,6 C 90 % 1005,7 hPa 0,0 l/m 3,0 km/h (1 Bft) O 2,1 C 3,6 C 8,9 km/h (2 Bft)
08.01.2016 17:00 2,5 C 94 % 1005,7 hPa 0,8 l/m 1,6 km/h (1 Bft) W 1,6 C 2,5 C 5,2 km/h (1 Bft)
08.01.2016 18:00 2,2 C 94 % 1005,7 hPa 0,8 l/m 1,6 km/h (1 Bft) O 1,3 C 2,2 C 4,3 km/h (1 Bft)
08.01.2016 19:00 1,9 C 95 % 1005,2 hPa 0,3 l/m 1,4 km/h (1 Bft) O 1,1 C 1,9 C 4,1 km/h (1 Bft)
08.01.2016 20:00 1,8 C 95 % 1005,0 hPa 0,3 l/m 0,5 km/h (0 Bft) O-SO 1,1 C 1,8 C 1,9 km/h (1 Bft)
08.01.2016 21:00 1,8 C 95 % 1004,8 hPa 1,0 l/m 0,1 km/h (0 Bft) O-SO 1,1 C 1,8 C 0,9 km/h (0 Bft)
08.01.2016 22:00 1,9 C 96 % 1004,6 hPa 0,5 l/m 0,1 km/h (0 Bft) O-SO 1,4 C 1,9 C 0,9 km/h (0 Bft)
08.01.2016 23:00 1,9 C 97 % 1004,5 hPa 0,0 l/m 0,1 km/h (0 Bft) SO 1,4 C 1,9 C 0,7 km/h (0 Bft)
09.01.2016 00:00 1,8 C 97 % 1004,4 hPa 0,0 l/m 0,1 km/h (0 Bft) SO 1,4 C 1,8 C 0,7 km/h (0 Bft)
09.01.2016 01:00 1,8 C 98 % 1004,5 hPa 0,0 l/m 0,2 km/h (0 Bft) SO 1,5 C 1,8 C 1,1 km/h (0 Bft)
09.01.2016 02:00 1,8 C 98 % 1004,5 hPa 0,0 l/m 0,0 km/h (0 Bft) SO 1,4 C 1,8 C 0,1 km/h (0 Bft)
09.01.2016 03:00 1,9 C 98 % 1004,8 hPa 0,0 l/m 0,0 km/h (0 Bft) SO 1,6 C 1,9 C 0,2 km/h (0 Bft)
09.01.2016 04:00 2,1 C 98 % 1004,5 hPa 0,0 l/m 0,1 km/h (0 Bft) SO 1,8 C 2,1 C 0,7 km/h (0 Bft)
09.01.2016 05:00 2,2 C 98 % 1004,8 hPa 0,0 l/m 0,0 km/h (0 Bft) SO 1,9 C 2,2 C 0,0 km/h (0 Bft)
09.01.2016 06:00 2,3 C 98 % 1004,7 hPa 0,0 l/m 0,0 km/h (0 Bft) N 2,0 C 2,3 C 0,0 km/h (0 Bft)
09.01.2016 07:00 2,4 C 98 % 1004,7 hPa 0,0 l/m 0,0 km/h (0 Bft) N 2,1 C 2,4 C 0,1 km/h (0 Bft)
09.01.2016 08:00 2,5 C 98 % 1004,7 hPa 0,3 l/m 0,0 km/h (0 Bft) N 2,2 C 2,5 C 0,0 km/h (0 Bft)
09.01.2016 09:00 2,8 C 98 % 1004,6 hPa 0,0 l/m 0,3 km/h (0 Bft) SO 2,5 C 2,8 C 1,0 km/h (0 Bft)
09.01.2016 10:00 3,7 C 98 % 1004,6 hPa 0,0 l/m 0,2 km/h (0 Bft) SO 3,5 C 3,7 C 1,3 km/h (1 Bft)
09.01.2016 11:00 4,4 C 98 % 1004,4 hPa 0,0 l/m 1,1 km/h (1 Bft) O 4,1 C 4,4 C 2,9 km/h (1 Bft)
09.01.2016 12:00 4,9 C 97 % 1004,1 hPa 0,0 l/m 1,2 km/h (1 Bft) O 4,5 C 4,9 C 3,2 km/h (1 Bft)
09.01.2016 13:00 5,6 C 96 % 1003,7 hPa 0,0 l/m 0,7 km/h (0 Bft) O-NO 5,0 C 5,6 C 2,5 km/h (1 Bft)
09.01.2016 14:00 6,1 C 96 % 1003,6 hPa 0,0 l/m 0,3 km/h (0 Bft) O-NO 5,5 C 6,1 C 1,8 km/h (1 Bft)
09.01.2016 15:00 6,2 C 96 % 1003,6 hPa 0,0 l/m 0,5 km/h (0 Bft) NO 5,5 C 6,2 C 1,6 km/h (1 Bft)
09.01.2016 16:00 6,1 C 97 % 1003,6 hPa 0,0 l/m 1,1 km/h (1 Bft) NO 5,6 C 6,1 C 3,3 km/h (1 Bft)
09.01.2016 17:00 6,1 C 96 % 1003,4 hPa 0,0 l/m 1,4 km/h (1 Bft) O-NO 5,5 C 6,1 C 3,6 km/h (1 Bft)
09.01.2016 18:00 5,8 C 96 % 1003,3 hPa 0,0 l/m 0,6 km/h (0 Bft) NO 5,3 C 5,8 C 2,2 km/h (1 Bft)
09.01.2016 19:00 4,9 C 96 % 1002,7 hPa 0,0 l/m 0,1 km/h (0 Bft) NO 4,2 C 4,9 C 0,5 km/h (0 Bft)
09.01.2016 20:00 4,3 C 97 % 1002,5 hPa 0,0 l/m 1,2 km/h (1 Bft) NO 3,9 C 4,3 C 3,5 km/h (1 Bft)
09.01.2016 21:00 4,1 C 96 % 1002,3 hPa 0,0 l/m 2,9 km/h (1 Bft) NO 3,6 C 4,1 C 6,3 km/h (2 Bft)
09.01.2016 22:00 2,9 C 97 % 1002,0 hPa 0,0 l/m 5,0 km/h (1 Bft) O-NO 2,5 C 2,9 C 12,6 km/h (3 Bft)
09.01.2016 23:00 3,2 C 98 % 1001,8 hPa 0,0 l/m 5,2 km/h (1 Bft) O-NO 2,9 C 3,2 C 12,3 km/h (2 Bft)
10.01.2016 00:00 3,2 C 97 % 1001,6 hPa 0,0 l/m 5,4 km/h (1 Bft) O 2,8 C 3,0 C 11,9 km/h (2 Bft)
10.01.2016 01:00 3,4 C 97 % 1000,9 hPa 0,0 l/m 5,1 km/h (1 Bft) O-NO 3,0 C 3,4 C 12,5 km/h (2 Bft)
10.01.2016 02:00 3,7 C 96 % 1000,4 hPa 0,0 l/m 2,8 km/h (1 Bft) O 3,2 C 3,7 C 6,5 km/h (2 Bft)
10.01.2016 03:00 3,7 C 96 % 999,9 hPa 0,0 l/m 2,4 km/h (1 Bft) O 3,0 C 3,7 C 6,1 km/h (2 Bft)
10.01.2016 04:00 3,6 C 95 % 999,1 hPa 0,0 l/m 2,7 km/h (1 Bft) O 2,9 C 3,6 C 7,5 km/h (2 Bft)
10.01.2016 05:00 3,5 C 95 % 998,7 hPa 0,8 l/m 3,1 km/h (1 Bft) NO 2,9 C 3,5 C 8,1 km/h (2 Bft)
10.01.2016 06:00 4,0 C 95 % 999,0 hPa 1,5 l/m 3,5 km/h (1 Bft) O 3,3 C 3,9 C 8,4 km/h (2 Bft)
10.01.2016 07:00 4,2 C 96 % 999,4 hPa 0,5 l/m 2,5 km/h (1 Bft) O-NO 3,5 C 4,2 C 5,5 km/h (2 Bft)
10.01.2016 08:00 4,0 C 94 % 999,5 hPa 0,5 l/m 4,4 km/h (1 Bft) NO 3,2 C 4,0 C 10,5 km/h (2 Bft)
10.01.2016 09:00 3,8 C 95 % 999,5 hPa 0,0 l/m 0,6 km/h (0 Bft) O-NO 3,1 C 3,8 C 2,0 km/h (1 Bft)
10.01.2016 10:00 4,1 C 95 % 1000,0 hPa 0,0 l/m 3,1 km/h (1 Bft) N-NO 3,3 C 4,1 C 9,3 km/h (2 Bft)
10.01.2016 11:00 4,7 C 93 % 999,8 hPa 0,0 l/m 4,0 km/h (1 Bft) NO 3,7 C 4,7 C 8,4 km/h (2 Bft)
10.01.2016 12:00 4,9 C 93 % 999,4 hPa 0,0 l/m 4,4 km/h (1 Bft) NO 3,9 C 5,0 C 8,8 km/h (2 Bft)
10.01.2016 13:00 5,3 C 91 % 998,8 hPa 0,0 l/m 3,7 km/h (1 Bft) O-NO 4,0 C 5,3 C 8,7 km/h (2 Bft)
10.01.2016 14:00 5,0 C 92 % 998,1 hPa 0,3 l/m 2,8 km/h (1 Bft) NO 3,8 C 5,0 C 8,7 km/h (2 Bft)
10.01.2016 15:00 4,6 C 92 % 997,7 hPa 1,5 l/m 3,9 km/h (1 Bft) O 3,5 C 4,6 C 9,2 km/h (2 Bft)
10.01.2016 16:00 4,0 C 94 % 997,5 hPa 2,0 l/m 5,0 km/h (1 Bft) O-NO 3,1 C 3,9 C 12,8 km/h (3 Bft)
10.01.2016 17:00 3,0 C 93 % 997,3 hPa 0,5 l/m 5,0 km/h (1 Bft) O-NO 2,0 C 2,7 C 12,4 km/h (2 Bft)
10.01.2016 18:00 2,2 C 94 % 997,6 hPa 1,8 l/m 5,6 km/h (2 Bft) O-NO 1,4 C 1,7 C 12,4 km/h (2 Bft)
10.01.2016 19:00 2,1 C 95 % 997,7 hPa 1,3 l/m 4,2 km/h (1 Bft) NO 1,4 C 2,1 C 10,7 km/h (2 Bft)
10.01.2016 20:00 2,6 C 96 % 997,8 hPa 0,5 l/m 2,8 km/h (1 Bft) N-NO 2,0 C 2,6 C 6,4 km/h (2 Bft)
10.01.2016 21:00 2,9 C 96 % 997,8 hPa 0,5 l/m 3,8 km/h (1 Bft) NO 2,4 C 3,0 C 8,6 km/h (2 Bft)
10.01.2016 22:00 4,5 C 95 % 998,0 hPa 0,3 l/m 7,7 km/h (2 Bft) O-NO 3,7 C 3,3 C 17,2 km/h (3 Bft)
10.01.2016 23:00 4,3 C 95 % 998,4 hPa 0,8 l/m 6,3 km/h (2 Bft) N-NO 3,5 C 3,9 C 14,5 km/h (3 Bft)
Min-Datum _ 05.01.16 07.01.16 04.01.16 - 10.01.16 - 05.01.16 04.01.16 10.01.16
_ Min-Zeit 07:50 22:50 06:42 - 09:00 - 07:24 04:59 09:00
Minimum _ -0,3 C 84 % 992,3 hPa - 0,0 km/h (0 Bft) - -0,8 C -2,9 C 0,0 km/h (0 Bft)
Max-Datum _ 09.01.16 09.01.16 08.01.16 04.01.16 07.01.16 - 09.01.16 09.01.16 08.01.16
_ Max-Zeit 15:01 11:10 08:10 04:02 21:07 - 14:59 15:01 00:25
Maximum _ 6,3 C 99 % 1008,4 hPa 4,8 l/m 14,5 km/h
O-NO (3 Bft)
- 5,7 C 6,3 C 33,8 km/h
O-NO (5 Bft)
Durchschnitt _ 2,8 C 95 % 1000,1 hPa #63,8 l/m 2,6 km/h (1 Bft) O-NO 2,0 C 2,7 C 6,5 km/h (2 Bft)